createdAt,value
2019-02-19T00:03:40.280Z,73.12
2019-02-19T00:06:08.992Z,74.27
2019-02-19T00:08:56.861Z,75.19
2019-02-19T00:11:25.500Z,75.44
2019-02-19T00:13:54.167Z,75.66
2019-02-19T00:16:22.874Z,74.27
2019-02-19T00:21:40.884Z,74.91
2019-02-19T00:24:09.638Z,76.27
2019-02-19T00:26:38.224Z,77.01
2019-02-19T00:29:06.914Z,77.01
2019-02-19T00:31:35.499Z,77.78
2019-02-19T00:34:04.146Z,77.62
2019-02-19T00:36:32.884Z,77.25
2019-02-19T00:39:01.523Z,76.26
2019-02-19T00:41:49.400Z,76.72
2019-02-19T00:44:18.070Z,77.29
2019-02-19T00:46:46.725Z,77.98
2019-02-19T00:49:15.420Z,78.09
2019-02-19T00:51:44.114Z,77.88
2019-02-19T00:54:12.801Z,77.58
2019-02-19T00:56:41.508Z,78.07
2019-02-19T00:59:10.215Z,78.79
2019-02-19T01:01:38.889Z,78.62
2019-02-19T01:04:07.565Z,77.50
2019-02-19T01:06:36.215Z,77.91
2019-02-19T01:09:44.690Z,78.62
2019-02-19T01:12:13.388Z,79.46
2019-02-19T01:14:42.038Z,79.37
2019-02-19T01:17:10.750Z,79.82
2019-02-19T01:19:39.393Z,80.17
2019-02-19T01:22:27.344Z,80.57
2019-02-19T01:24:56.087Z,79.93
2019-02-19T01:27:24.665Z,79.50
2019-02-19T01:29:53.344Z,80.22
2019-02-19T01:32:22.003Z,79.90
2019-02-19T01:34:50.682Z,79.90
2019-02-19T01:37:19.364Z,80.46
2019-02-19T01:39:48.055Z,80.51
2019-02-19T01:42:16.696Z,80.34
2019-02-19T01:44:45.427Z,80.26
2019-02-19T01:47:14.066Z,80.31
2019-02-19T01:49:42.751Z,80.64
2019-02-19T01:52:11.581Z,80.58
2019-02-19T01:54:40.276Z,81.06
2019-02-19T01:57:08.964Z,81.18
2019-02-19T01:59:37.577Z,81.29
2019-02-19T02:02:06.351Z,81.37
2019-02-19T02:04:35.083Z,81.71
2019-02-19T02:07:04.532Z,81.92
2019-02-19T02:09:34.076Z,81.66
2019-02-19T02:12:02.723Z,81.34
2019-02-19T02:14:31.525Z,81.85
2019-02-19T02:17:00.230Z,82.17
2019-02-19T02:22:16.491Z,82.07
2019-02-19T02:25:04.344Z,80.79
2019-02-19T02:27:52.295Z,80.61
2019-02-19T02:30:20.979Z,81.10
2019-02-19T02:32:49.682Z,80.57
2019-02-19T02:35:18.327Z,81.13
2019-02-19T02:37:46.881Z,82.30
2019-02-19T02:40:15.611Z,81.21
2019-02-19T02:42:44.228Z,80.73
2019-02-19T02:45:12.849Z,81.14
2019-02-19T02:47:41.614Z,81.07
2019-02-19T02:50:10.280Z,82.17
2019-02-19T02:52:58.206Z,82.01
2019-02-19T02:55:26.749Z,81.66
2019-02-19T02:57:55.425Z,81.32
2019-02-19T03:00:24.206Z,81.05
2019-02-19T03:02:52.913Z,81.19
2019-02-19T03:05:21.567Z,80.95
2019-02-19T03:10:29.476Z,80.47
2019-02-19T03:12:58.094Z,80.31
2019-02-19T03:15:26.746Z,80.30
2019-02-19T03:20:30.086Z,80.11
2019-02-19T03:22:58.745Z,80.20
2019-02-19T03:25:27.429Z,80.00
2019-02-19T03:27:56.088Z,79.55
2019-02-19T03:30:44.064Z,77.99
2019-02-19T03:33:12.717Z,77.64
2019-02-19T03:35:41.409Z,77.63
2019-02-19T03:38:09.993Z,77.83
2019-02-19T03:40:38.652Z,77.62
2019-02-19T03:43:07.303Z,76.60
2019-02-19T03:45:35.939Z,75.12
2019-02-19T03:48:04.744Z,74.70
2019-02-19T03:50:33.322Z,74.64
2019-02-19T03:53:02.015Z,75.13
2019-02-19T03:56:10.487Z,75.31
2019-02-19T03:58:39.138Z,75.94
2019-02-19T04:01:27.091Z,76.62
2019-02-19T04:03:55.745Z,76.76
2019-02-19T04:06:24.368Z,76.84
2019-02-19T04:09:12.153Z,77.02
2019-02-19T04:11:40.829Z,76.79
2019-02-19T04:14:09.598Z,76.54
2019-02-19T04:16:38.417Z,76.57
2019-02-19T04:19:07.094Z,76.38
2019-02-19T04:21:54.934Z,75.62
2019-02-19T04:24:23.512Z,74.50
2019-02-19T04:26:52.167Z,74.29
2019-02-19T04:29:39.981Z,74.42
2019-02-19T04:32:08.629Z,73.55
2019-02-19T04:34:37.319Z,73.67
2019-02-19T04:37:05.902Z,73.21
2019-02-19T04:39:34.584Z,72.92
2019-02-19T04:42:03.253Z,72.89
2019-02-19T04:44:31.885Z,73.27
2019-02-19T04:47:00.652Z,72.71
2019-02-19T04:49:29.320Z,72.83
2019-02-19T04:51:58.051Z,72.82
2019-02-19T04:54:26.704Z,72.76
2019-02-19T04:57:14.727Z,73.32
2019-02-19T04:59:43.436Z,73.56
2019-02-19T05:02:12.142Z,73.69
2019-02-19T05:05:00.049Z,74.13
2019-02-19T05:07:28.743Z,73.97
2019-02-19T05:09:57.366Z,73.53
2019-02-19T05:12:26.026Z,72.99
2019-02-19T05:15:13.844Z,72.46
2019-02-19T05:17:42.546Z,72.11
2019-02-19T05:20:11.198Z,70.93
2019-02-19T05:22:39.838Z,70.75
2019-02-19T05:25:48.318Z,71.06
2019-02-19T05:28:16.836Z,70.86
2019-02-19T05:30:45.510Z,71.30
2019-02-19T05:33:14.156Z,71.34
2019-02-19T05:36:02.024Z,71.15
2019-02-19T05:38:30.702Z,71.29
2019-02-19T05:40:59.281Z,71.19
2019-02-19T05:43:28.115Z,71.45
2019-02-19T05:45:56.761Z,72.06
2019-02-19T05:48:44.645Z,72.78
2019-02-19T05:51:13.344Z,73.37
2019-02-19T05:53:42.142Z,74.27
2019-02-19T05:56:10.984Z,74.43
2019-02-19T05:58:41.351Z,74.38
2019-02-19T06:01:10.045Z,75.30
2019-02-19T06:03:38.680Z,75.60
2019-02-19T06:06:07.259Z,75.97
2019-02-19T06:08:36.461Z,75.46
2019-02-19T06:11:45.240Z,76.15
2019-02-19T06:14:13.858Z,76.82
2019-02-19T06:19:37.806Z,78.62
2019-02-19T06:25:13.602Z,78.26
2019-02-19T06:27:42.343Z,78.65
2019-02-19T06:30:32.149Z,78.83
2019-02-19T06:33:01.728Z,79.09
2019-02-19T06:38:19.543Z,79.55
2019-02-19T06:41:07.502Z,79.82
2019-02-19T06:43:36.200Z,79.64
2019-02-19T06:46:04.906Z,79.64
2019-02-19T06:48:33.595Z,79.64
2019-02-19T06:51:02.297Z,79.50
2019-02-19T06:53:31.037Z,79.13
2019-02-19T06:55:59.713Z,78.61
2019-02-19T06:58:28.369Z,77.72
2019-02-19T07:00:57.051Z,77.52
2019-02-19T07:06:14.951Z,74.04
2019-02-19T07:08:43.616Z,73.54
2019-02-19T07:11:12.304Z,72.52
2019-02-19T07:16:49.480Z,70.98
2019-02-19T07:19:18.129Z,69.13
2019-02-19T07:21:46.769Z,68.33
2019-02-19T07:24:34.558Z,67.93
2019-02-19T07:27:03.338Z,67.03
2019-02-19T07:29:51.138Z,66.15
2019-02-19T07:32:19.774Z,66.42
2019-02-19T07:35:07.611Z,65.65
2019-02-19T07:37:36.277Z,64.89
2019-02-19T07:40:44.749Z,64.33
2019-02-19T07:43:13.445Z,64.33
2019-02-19T07:45:42.194Z,63.83
2019-02-19T07:48:10.881Z,63.68
2019-02-19T07:50:39.611Z,63.47
2019-02-19T07:53:08.266Z,62.59
2019-02-19T07:55:36.884Z,62.57
2019-02-19T07:58:05.583Z,61.50
2019-02-19T08:00:34.274Z,61.10
2019-02-19T08:03:04.545Z,60.81
2019-02-19T08:05:33.378Z,60.77
2019-02-19T08:08:21.205Z,59.96
2019-02-19T08:10:49.820Z,58.86
2019-02-19T08:13:18.477Z,59.16
2019-02-19T08:15:47.086Z,57.47
2019-02-19T08:18:15.748Z,56.59
2019-02-19T08:20:44.421Z,57.54
2019-02-19T08:23:32.362Z,57.31
2019-02-19T08:26:01.087Z,56.96
2019-02-19T08:28:29.656Z,56.07
2019-02-19T08:30:58.271Z,57.38
2019-02-19T08:33:26.924Z,57.29
2019-02-19T08:35:55.608Z,57.96
2019-02-19T08:38:24.195Z,58.89
2019-02-19T08:41:12.143Z,58.82
2019-02-19T08:43:59.992Z,59.30
2019-02-19T08:46:28.690Z,59.76
2019-02-19T08:49:16.554Z,60.20
2019-02-19T08:51:45.213Z,59.79
2019-02-19T08:54:33.100Z,59.29
2019-02-19T08:57:02.013Z,58.66
2019-02-19T08:59:30.625Z,58.85
2019-02-19T09:01:59.326Z,58.71
2019-02-19T09:04:27.927Z,58.86
2019-02-19T09:07:15.733Z,58.66
2019-02-19T09:09:44.423Z,58.86
2019-02-19T09:12:13.074Z,58.20
2019-02-19T09:14:41.717Z,58.74
2019-02-19T09:17:10.400Z,59.81
2019-02-19T09:19:39.126Z,58.59
2019-02-19T09:22:27.002Z,58.38
2019-02-19T09:24:55.696Z,57.50
2019-02-19T09:27:43.606Z,58.46
2019-02-19T09:30:52.082Z,58.10
2019-02-19T09:33:20.714Z,58.46
2019-02-19T09:36:08.584Z,57.73
2019-02-19T09:38:37.293Z,56.78
2019-02-19T09:41:05.916Z,55.02
2019-02-19T09:43:35.751Z,56.34
2019-02-19T09:46:04.891Z,55.29
2019-02-19T09:48:33.593Z,55.01
2019-02-19T09:51:02.257Z,56.48
2019-02-19T09:53:30.831Z,56.37
2019-02-19T09:56:18.783Z,55.81
2019-02-19T09:58:47.431Z,55.58
2019-02-19T10:01:35.220Z,56.38
2019-02-19T10:04:03.880Z,56.34
2019-02-19T10:06:32.608Z,56.39
2019-02-19T10:09:01.273Z,56.80
2019-02-19T10:11:49.148Z,56.47
2019-02-19T10:14:17.809Z,56.54
2019-02-19T10:16:46.510Z,55.87
2019-02-19T10:19:15.144Z,56.23
2019-02-19T10:22:02.999Z,56.02
2019-02-19T10:24:31.701Z,56.55
2019-02-19T10:27:00.405Z,57.66
2019-02-19T10:29:29.045Z,57.15
2019-02-19T10:31:57.740Z,56.33
2019-02-19T10:34:26.397Z,57.07
2019-02-19T10:36:55.049Z,56.79
2019-02-19T10:39:23.865Z,56.45
2019-02-19T10:41:53.059Z,57.24
2019-02-19T10:44:22.959Z,57.01
2019-02-19T10:46:51.657Z,57.77
2019-02-19T10:49:20.226Z,59.16
2019-02-19T10:54:36.577Z,59.64
2019-02-19T10:57:05.253Z,59.32
2019-02-19T10:59:33.953Z,59.88
2019-02-19T11:02:02.607Z,59.06
2019-02-19T11:04:31.372Z,59.66
2019-02-19T11:07:00.016Z,59.11
2019-02-19T11:09:28.719Z,58.56
2019-02-19T11:11:58.132Z,58.35
2019-02-19T11:14:27.886Z,58.86
2019-02-19T11:16:56.561Z,58.44
2019-02-19T11:19:44.405Z,58.42
2019-02-19T11:22:32.272Z,57.94
2019-02-19T11:25:00.908Z,58.13
2019-02-19T11:27:29.870Z,57.72
2019-02-19T11:29:58.603Z,55.92
2019-02-19T11:32:46.412Z,56.42
2019-02-19T11:35:15.123Z,54.41
2019-02-19T11:37:43.827Z,56.16
2019-02-19T11:40:52.245Z,56.02
2019-02-19T11:43:20.947Z,55.82
2019-02-19T11:45:49.536Z,54.46
2019-02-19T11:48:19.201Z,54.25
2019-02-19T11:50:48.664Z,54.14
2019-02-19T11:53:17.335Z,53.65
2019-02-19T11:55:46.039Z,54.36
2019-02-19T11:58:14.678Z,54.72
2019-02-19T12:03:32.571Z,55.66
2019-02-19T12:06:01.339Z,56.13
2019-02-19T12:08:49.228Z,54.17
2019-02-19T12:11:17.909Z,52.94
2019-02-19T12:13:46.573Z,53.82
2019-02-19T12:16:15.263Z,55.06
2019-02-19T12:19:03.177Z,54.82
2019-02-19T12:21:31.892Z,54.86
2019-02-19T12:24:00.562Z,55.71
2019-02-19T12:26:48.820Z,53.93
2019-02-19T12:29:17.571Z,53.56
2019-02-19T12:32:05.459Z,52.81
2019-02-19T12:34:34.077Z,53.82
2019-02-19T12:37:02.590Z,52.64
2019-02-19T12:39:31.286Z,52.72
2019-02-19T12:41:59.954Z,54.66
2019-02-19T12:44:47.911Z,54.90
2019-02-19T12:47:16.496Z,53.72
2019-02-19T12:50:04.464Z,51.17
2019-02-19T12:52:33.120Z,51.91
2019-02-19T12:55:21.093Z,52.47
2019-02-19T12:57:49.781Z,52.60
2019-02-19T13:00:58.283Z,54.51
2019-02-19T13:03:26.932Z,55.87
2019-02-19T13:05:55.618Z,55.87
2019-02-19T13:08:24.300Z,57.89
2019-02-19T13:10:52.988Z,56.76
2019-02-19T13:13:21.655Z,58.19
2019-02-19T13:15:50.350Z,58.72
2019-02-19T13:18:18.983Z,58.72
2019-02-19T13:20:47.762Z,59.59
2019-02-19T13:23:16.413Z,60.28
2019-02-19T13:25:45.070Z,61.51
2019-02-19T13:28:13.763Z,61.82
2019-02-19T13:30:42.403Z,63.06
2019-02-19T13:33:11.143Z,63.46
2019-02-19T13:35:39.834Z,63.01
2019-02-19T13:38:08.506Z,63.44
2019-02-19T13:40:37.221Z,63.72
2019-02-19T13:43:05.986Z,64.96
2019-02-19T13:45:34.634Z,65.57
2019-02-19T13:48:06.022Z,65.36
2019-02-19T13:50:33.704Z,66.43
2019-02-19T13:53:21.541Z,67.10
2019-02-19T13:56:09.359Z,67.71
2019-02-19T13:58:38.066Z,67.80
2019-02-19T14:01:06.726Z,67.33
2019-02-19T14:06:09.471Z,68.76
2019-02-19T14:08:57.406Z,69.47
2019-02-19T14:11:26.106Z,69.53
2019-02-19T14:14:13.862Z,69.91
2019-02-19T14:22:16.221Z,70.47
2019-02-19T14:30:36.070Z,72.04
2019-02-19T14:33:23.876Z,72.12
2019-02-19T14:36:11.678Z,72.20
2019-02-19T14:38:59.514Z,72.89
2019-02-19T14:41:47.252Z,72.92
2019-02-19T14:44:34.992Z,74.09
2019-02-19T14:47:22.785Z,73.87
2019-02-19T14:50:10.600Z,74.86
2019-02-19T14:52:58.425Z,74.63
2019-02-19T14:55:46.169Z,74.65
2019-02-19T14:58:33.932Z,75.42
2019-02-19T15:01:21.785Z,75.15
2019-02-19T15:04:09.598Z,75.45
2019-02-19T15:06:57.417Z,75.55
2019-02-19T15:09:45.222Z,75.92
2019-02-19T15:12:32.972Z,76.22
2019-02-19T15:15:20.793Z,75.71
2019-02-19T15:18:08.626Z,76.17
2019-02-19T15:23:45.654Z,76.48
2019-02-19T15:29:12.711Z,76.35
2019-02-19T15:32:00.490Z,76.47
2019-02-19T15:37:23.940Z,76.60
2019-02-19T15:40:11.716Z,76.48
2019-02-19T15:45:38.566Z,76.79
2019-02-19T15:51:01.729Z,77.30
2019-02-19T15:53:49.563Z,76.87
2019-02-19T15:56:37.361Z,77.65
2019-02-19T15:59:25.182Z,77.52
2019-02-19T16:05:02.230Z,76.79
2019-02-19T16:07:49.981Z,77.16
2019-02-19T16:13:20.819Z,77.72
2019-02-19T16:16:08.602Z,78.10
2019-02-19T16:18:56.423Z,77.65
2019-02-19T16:21:44.202Z,77.51
2019-02-19T16:29:44.388Z,77.60
2019-02-19T16:32:32.170Z,77.63
2019-02-19T16:35:19.981Z,77.52
2019-02-19T16:40:43.219Z,78.02
2019-02-19T16:43:31.021Z,78.71
2019-02-19T16:46:18.849Z,78.49
2019-02-19T16:49:06.663Z,78.47
2019-02-19T16:54:43.710Z,79.08
2019-02-19T17:00:10.476Z,79.49
2019-02-19T17:02:58.371Z,79.44
2019-02-19T17:05:46.152Z,80.15
2019-02-19T17:13:48.456Z,80.15
2019-02-19T17:16:43.849Z,80.10
2019-02-19T17:19:31.667Z,79.90
2019-02-19T17:33:14.557Z,81.47
2019-02-19T17:39:11.058Z,81.39
2019-02-19T17:41:58.946Z,81.65
2019-02-19T17:44:46.941Z,81.76
2019-02-19T17:47:34.810Z,81.85
2019-02-19T17:53:30.768Z,82.30
2019-02-19T17:56:18.588Z,82.54
2019-02-19T18:01:42.147Z,82.88
2019-02-19T18:04:29.972Z,82.73
2019-02-19T18:07:17.816Z,82.81
2019-02-19T18:10:05.648Z,83.00
2019-02-19T18:12:53.363Z,83.05
2019-02-19T18:15:41.178Z,83.19
2019-02-19T18:18:28.952Z,83.33
2019-02-19T18:20:57.700Z,83.24
2019-02-19T18:23:26.291Z,83.69
2019-02-19T18:25:54.977Z,83.38
2019-02-19T18:28:23.649Z,83.63
2019-02-19T18:30:52.357Z,83.61
2019-02-19T18:41:47.408Z,84.72
2019-02-19T18:46:50.543Z,84.87
2019-02-19T18:49:19.255Z,84.86
2019-02-19T18:52:07.102Z,84.91
2019-02-19T18:54:35.809Z,84.93
2019-02-19T18:57:23.642Z,85.13
2019-02-19T18:59:52.256Z,85.18
2019-02-19T19:02:20.897Z,85.86
2019-02-19T19:04:49.653Z,86.31
2019-02-19T19:07:18.405Z,86.89
2019-02-19T19:10:27.008Z,87.29
2019-02-19T19:12:55.836Z,87.18
2019-02-19T19:15:24.678Z,86.89
2019-02-19T19:17:53.515Z,86.89
2019-02-19T19:20:22.203Z,87.46
2019-02-19T19:22:50.971Z,87.34
2019-02-19T19:25:20.538Z,87.91
2019-02-19T19:28:08.717Z,87.55
2019-02-19T19:33:45.549Z,87.56
2019-02-19T19:36:14.373Z,87.46
2019-02-19T19:38:43.009Z,87.74
2019-02-19T19:41:30.912Z,87.74
2019-02-19T19:43:59.573Z,88.23
2019-02-19T19:46:28.295Z,88.98
2019-02-19T19:48:57.123Z,88.82
2019-02-19T19:51:45.085Z,88.64
2019-02-19T19:54:13.755Z,88.84
2019-02-19T19:56:42.546Z,88.58
2019-02-19T19:59:11.295Z,88.53
2019-02-19T20:01:40.001Z,88.53
2019-02-19T20:04:08.755Z,88.42
2019-02-19T20:06:56.666Z,88.54
2019-02-19T20:09:25.347Z,88.62
2019-02-19T20:11:54.205Z,88.56
2019-02-19T20:14:22.933Z,88.67
2019-02-19T20:16:51.511Z,89.56
2019-02-19T20:19:20.197Z,89.42
2019-02-19T20:22:08.254Z,89.34
2019-02-19T20:24:37.192Z,89.20
2019-02-19T20:27:05.867Z,89.72
2019-02-19T20:29:34.559Z,89.48
2019-02-19T20:32:03.331Z,89.21
2019-02-19T20:34:32.151Z,89.33
2019-02-19T20:37:00.958Z,89.74
2019-02-19T20:39:48.867Z,89.01
2019-02-19T20:42:17.514Z,88.95
2019-02-19T20:45:26.031Z,89.67
2019-02-19T20:47:54.694Z,91.41
2019-02-19T20:50:23.351Z,91.10
2019-02-19T20:52:52.066Z,91.13
2019-02-19T20:55:39.975Z,91.85
2019-02-19T20:58:08.680Z,91.39
2019-02-19T21:00:37.351Z,91.27
2019-02-19T21:03:25.406Z,91.29
2019-02-19T21:06:13.322Z,91.52
2019-02-19T21:08:42.023Z,91.91
2019-02-19T21:11:10.669Z,90.94
2019-02-19T21:13:39.474Z,90.95
2019-02-19T21:16:27.359Z,91.18
2019-02-19T21:19:15.376Z,91.41
2019-02-19T21:21:45.198Z,91.76
2019-02-19T21:24:14.505Z,92.13
2019-02-19T21:26:43.303Z,92.35
2019-02-19T21:29:11.892Z,92.16
2019-02-19T21:31:59.848Z,92.18
2019-02-19T21:34:28.519Z,92.45
2019-02-19T21:36:57.085Z,93.06
2019-02-19T21:39:25.787Z,92.48
2019-02-19T21:41:54.509Z,92.54
2019-02-19T21:44:23.222Z,92.59
2019-02-19T21:47:11.173Z,93.63
2019-02-19T21:49:39.829Z,94.48
2019-02-19T21:52:08.468Z,94.06
2019-02-19T21:54:37.034Z,94.14
2019-02-19T21:57:05.741Z,93.70
2019-02-19T21:59:34.459Z,93.17
2019-02-19T22:02:03.157Z,92.67
2019-02-19T22:04:32.110Z,93.24
2019-02-19T22:07:02.322Z,93.46
2019-02-19T22:09:31.026Z,93.62
2019-02-19T22:11:59.605Z,93.89
2019-02-19T22:14:28.183Z,94.13
2019-02-19T22:17:16.010Z,94.24
2019-02-19T22:25:47.933Z,94.09
2019-02-19T22:28:16.692Z,94.32
2019-02-19T22:30:45.333Z,94.13
2019-02-19T22:33:14.105Z,94.14
2019-02-19T22:35:42.773Z,94.56
2019-02-19T22:38:11.580Z,94.96
2019-02-19T22:40:40.140Z,93.64
2019-02-19T22:43:08.785Z,93.65
2019-02-19T22:45:37.678Z,94.39
2019-02-19T22:48:06.439Z,95.61
2019-02-19T22:50:35.235Z,95.24
2019-02-19T22:56:12.303Z,95.64
2019-02-19T22:58:40.978Z,95.37
2019-02-19T23:01:49.448Z,95.30
2019-02-19T23:04:18.265Z,95.36
2019-02-19T23:06:46.892Z,95.27
2019-02-19T23:09:34.851Z,95.03
2019-02-19T23:17:12.268Z,94.41
2019-02-19T23:19:42.856Z,95.57
2019-02-19T23:22:11.397Z,95.61
2019-02-19T23:24:59.283Z,95.80
2019-02-19T23:27:27.948Z,96.20
2019-02-19T23:29:56.652Z,95.58
2019-02-19T23:32:25.297Z,95.89
2019-02-19T23:37:29.476Z,95.79
2019-02-19T23:39:57.981Z,96.03
2019-02-19T23:42:45.934Z,94.81
2019-02-19T23:45:14.655Z,95.16
2019-02-19T23:47:43.414Z,95.66
2019-02-19T23:50:12.139Z,95.86
2019-02-19T23:52:40.826Z,95.51
2019-02-19T23:55:09.606Z,95.67
2019-02-19T23:57:38.300Z,96.25
